Terminal Aerodrome Forecast
Issued by NWS

Home | Current Version | Previous Version | Graphics & Text | Print | Product List | Glossary On
Versions: 1 2 3 4 5 6 7 8 9 10 11 12 13 14 15 16 17 18
000
FTUS43 KGRB 291200 AAA
TAFAUW
TAF AMD
KAUW 291245Z 2913/3012 34008KT 2SM BR OVC003
      TEMPO 2913/2914 4SM BR OVC006
     FM291400 01009G15KT P6SM BKN012 OVC020
      TEMPO 2915/2918 5SM -SHRA BR
     FM291800 35009G15KT P6SM OVC014
     FM300300 03007KT P6SM BKN018
     FM300800 05005KT P6SM SCT016=

USA.gov is the U.S. government's official web portal to all federal, state and local government web resources and services.